createdAt,value
2022-11-20T00:00:14.964Z,3.22
2022-11-20T00:02:44.680Z,3.23
2022-11-20T00:05:14.447Z,3.24
2022-11-20T00:07:44.162Z,3.23
2022-11-20T00:10:13.875Z,3.23
2022-11-20T00:12:46.189Z,3.22
2022-11-20T00:15:15.895Z,3.22
2022-11-20T00:17:45.635Z,3.21
2022-11-20T00:20:16.259Z,3.20
2022-11-20T00:22:45.979Z,3.19
2022-11-20T00:25:15.677Z,3.19
2022-11-20T00:27:47.967Z,3.20
2022-11-20T00:30:17.715Z,3.17
2022-11-20T00:32:47.385Z,3.16
2022-11-20T00:35:17.144Z,3.16
2022-11-20T00:37:46.862Z,3.16
2022-11-20T00:40:17.032Z,3.13
2022-11-20T00:42:49.349Z,3.14
2022-11-20T00:45:19.189Z,3.12
2022-11-20T00:47:48.888Z,3.11
2022-11-20T00:50:18.874Z,3.10
2022-11-20T00:52:48.592Z,3.12
2022-11-20T00:55:18.363Z,3.10
2022-11-20T00:57:50.672Z,3.08
2022-11-20T01:00:20.887Z,3.07
2022-11-20T01:02:50.684Z,3.08
2022-11-20T01:05:20.415Z,3.06
2022-11-20T01:07:50.108Z,3.06
2022-11-20T01:10:19.975Z,3.02
2022-11-20T01:13:12.303Z,3.03
2022-11-20T01:15:42.201Z,3.03
2022-11-20T01:18:11.931Z,3.06
2022-11-20T01:20:41.697Z,3.07
2022-11-20T01:23:11.543Z,3.07
2022-11-20T01:25:41.261Z,3.09
2022-11-20T01:28:13.632Z,3.10
2022-11-20T01:30:43.375Z,3.12
2022-11-20T01:33:13.234Z,3.12
2022-11-20T01:35:42.939Z,3.16
2022-11-20T01:38:12.692Z,3.16
2022-11-20T01:40:42.423Z,3.18
2022-11-20T01:43:21.821Z,3.21
2022-11-20T01:46:04.130Z,3.22
2022-11-20T01:48:39.884Z,3.23
2022-11-20T01:51:16.728Z,3.25
2022-11-20T01:53:47.058Z,3.26
2022-11-20T01:56:18.219Z,3.29
2022-11-20T01:58:54.755Z,3.30
2022-11-20T02:01:25.441Z,3.28
2022-11-20T02:03:55.388Z,3.28
2022-11-20T02:06:29.359Z,3.31
2022-11-20T02:08:59.521Z,3.32
2022-11-20T02:11:29.256Z,3.35
2022-11-20T02:13:59.562Z,3.37
2022-11-20T02:16:33.136Z,3.41
2022-11-20T02:19:05.699Z,3.41
2022-11-20T02:21:41.473Z,3.43
2022-11-20T02:24:18.995Z,3.44
2022-11-20T02:26:55.135Z,3.45
2022-11-20T02:29:29.843Z,3.46
2022-11-20T02:32:02.564Z,3.49
2022-11-20T02:34:32.708Z,3.51
2022-11-20T02:37:03.654Z,3.53
2022-11-20T02:39:36.000Z,3.54
2022-11-20T02:42:05.977Z,3.52
2022-11-20T02:44:35.727Z,3.47
2022-11-20T02:47:05.493Z,3.45
2022-11-20T02:49:35.755Z,3.40
2022-11-20T02:52:06.803Z,3.36
2022-11-20T02:54:39.256Z,3.35
2022-11-20T02:57:08.960Z,3.34
2022-11-20T02:59:38.696Z,3.36
2022-11-20T03:02:08.863Z,3.38
2022-11-20T03:04:38.722Z,3.38
2022-11-20T03:07:08.891Z,3.34
2022-11-20T03:09:41.308Z,3.31
2022-11-20T03:12:11.428Z,3.25
2022-11-20T03:14:41.187Z,3.20
2022-11-20T03:17:10.924Z,3.18
2022-11-20T03:19:40.727Z,3.15
2022-11-20T03:22:10.440Z,3.13
2022-11-20T03:24:42.812Z,3.11
2022-11-20T03:27:12.535Z,3.09
2022-11-20T03:29:42.370Z,3.09
2022-11-20T03:32:12.124Z,3.10
2022-11-20T03:34:41.859Z,3.12
2022-11-20T03:37:11.706Z,3.15
2022-11-20T03:39:44.054Z,3.19
2022-11-20T03:42:34.711Z,3.23
2022-11-20T03:45:04.476Z,3.28
2022-11-20T03:47:34.199Z,3.32
2022-11-20T03:50:03.999Z,3.35
2022-11-20T03:52:33.765Z,3.39
2022-11-20T03:55:06.451Z,3.41
2022-11-20T03:57:36.569Z,3.42
2022-11-20T04:00:07.528Z,3.42
2022-11-20T04:02:37.323Z,3.42
2022-11-20T04:05:07.568Z,3.42
2022-11-20T04:07:38.569Z,3.41
2022-11-20T04:10:11.866Z,3.41
2022-11-20T04:12:41.596Z,3.43
2022-11-20T04:15:13.349Z,3.44
2022-11-20T04:17:43.103Z,3.45
2022-11-20T04:20:13.618Z,3.47
2022-11-20T04:22:43.336Z,3.47
2022-11-20T04:25:15.628Z,3.52
2022-11-20T04:27:45.469Z,3.54
2022-11-20T04:30:16.416Z,3.56
2022-11-20T04:32:46.197Z,3.58
2022-11-20T04:35:16.061Z,3.59
2022-11-20T04:37:45.899Z,3.60
2022-11-20T04:40:19.313Z,3.62
2022-11-20T04:42:49.130Z,3.63
2022-11-20T04:45:19.235Z,3.65
2022-11-20T05:09:52.864Z,3.70
2022-11-20T05:12:22.655Z,3.65
2022-11-20T05:14:52.432Z,3.61
2022-11-20T05:17:22.272Z,3.58
2022-11-20T05:19:54.879Z,3.56
2022-11-20T05:22:24.876Z,3.56
2022-11-20T05:24:57.698Z,3.53
2022-11-20T05:27:27.541Z,3.53
2022-11-20T05:29:57.280Z,3.52
2022-11-20T05:32:27.925Z,3.52
2022-11-20T05:34:57.723Z,3.51
2022-11-20T05:37:27.693Z,3.49
2022-11-20T05:40:00.080Z,3.48
2022-11-20T05:42:37.047Z,3.46
2022-11-20T05:45:08.546Z,3.44
2022-11-20T05:47:38.625Z,3.43
2022-11-20T05:50:09.493Z,3.42
2022-11-20T05:52:39.375Z,3.43
2022-11-20T05:55:12.985Z,3.45
2022-11-20T05:57:42.775Z,3.47
2022-11-20T06:00:14.355Z,3.49
2022-11-20T06:02:44.371Z,3.49
2022-11-20T06:05:14.245Z,3.50
2022-11-20T06:07:44.032Z,3.51
2022-11-20T06:10:16.748Z,3.54
2022-11-20T06:12:46.548Z,3.55
2022-11-20T06:15:16.344Z,3.58
2022-11-20T06:17:46.118Z,3.61
2022-11-20T06:20:16.364Z,3.63
2022-11-20T06:22:46.088Z,3.67
2022-11-20T06:25:18.719Z,3.68
2022-11-20T06:27:56.780Z,3.69
2022-11-20T06:33:06.527Z,3.71
2022-11-20T06:35:36.357Z,3.72
2022-11-20T06:38:06.149Z,3.72
2022-11-20T06:40:38.556Z,3.73
2022-11-20T06:43:08.376Z,3.72
2022-11-20T06:45:38.123Z,3.74
2022-11-20T06:48:08.280Z,3.75
2022-11-20T06:50:38.272Z,3.75
2022-11-20T06:53:08.893Z,3.78
2022-11-20T06:55:45.658Z,3.79
2022-11-20T06:58:15.679Z,3.81
2022-11-20T07:00:45.895Z,3.82
2022-11-20T07:03:16.419Z,3.84
2022-11-20T07:05:47.115Z,3.85
2022-11-20T07:08:16.952Z,3.87
2022-11-20T07:10:49.453Z,3.87
2022-11-20T07:13:19.323Z,3.90
2022-11-20T07:15:49.188Z,3.91
2022-11-20T07:18:19.116Z,3.92
2022-11-20T07:20:48.903Z,3.91
2022-11-20T07:23:18.787Z,3.89
2022-11-20T07:25:51.234Z,3.88
2022-11-20T07:28:21.017Z,3.85
2022-11-20T07:30:54.336Z,3.82
2022-11-20T07:33:24.260Z,3.79
2022-11-20T07:35:54.258Z,3.75
2022-11-20T07:38:24.145Z,3.76
2022-11-20T07:41:02.689Z,3.78
2022-11-20T07:43:34.813Z,3.77
2022-11-20T07:46:08.578Z,3.77
2022-11-20T07:48:38.397Z,3.78
2022-11-20T07:51:08.366Z,3.79
2022-11-20T07:53:38.131Z,3.82
2022-11-20T07:56:11.349Z,3.86
2022-11-20T07:58:41.237Z,3.87
2022-11-20T08:01:11.937Z,3.90
2022-11-20T08:03:41.706Z,3.92
2022-11-20T08:06:11.938Z,3.92
2022-11-20T08:08:42.830Z,3.95
2022-11-20T08:11:27.987Z,3.96
2022-11-20T08:14:10.141Z,3.95
2022-11-20T08:16:39.837Z,3.96
2022-11-20T08:19:09.668Z,3.98
2022-11-20T08:21:39.439Z,4.01
2022-11-20T08:24:10.261Z,4.02
2022-11-20T08:26:43.818Z,4.06
2022-11-20T08:29:13.572Z,4.07
2022-11-20T08:31:43.312Z,4.08
2022-11-20T08:34:18.623Z,4.09
2022-11-20T08:36:49.012Z,4.11
2022-11-20T08:39:19.131Z,4.14
2022-11-20T08:41:51.647Z,4.15
2022-11-20T08:44:21.396Z,4.17
2022-11-20T08:46:51.106Z,4.17
2022-11-20T08:49:21.124Z,4.18
2022-11-20T08:51:53.526Z,4.20
2022-11-20T08:54:23.756Z,4.20
2022-11-20T08:56:56.084Z,4.21
2022-11-20T09:00:03.856Z,4.22
2022-11-20T09:02:16.481Z,4.23
2022-11-20T09:04:46.197Z,4.25
2022-11-20T09:07:16.083Z,4.28
2022-11-20T09:09:46.439Z,4.30
2022-11-20T09:12:19.004Z,4.32
2022-11-20T09:14:53.725Z,4.33
2022-11-20T09:17:24.649Z,4.36
2022-11-20T09:19:54.338Z,4.37
2022-11-20T09:22:24.020Z,4.38
2022-11-20T09:24:53.826Z,4.40
2022-11-20T09:27:26.184Z,4.42
2022-11-20T09:29:55.929Z,4.42
2022-11-20T09:32:25.643Z,4.39
2022-11-20T09:34:55.401Z,4.42
2022-11-20T09:37:25.228Z,4.42
2022-11-20T09:39:54.993Z,4.46
2022-11-20T09:42:39.020Z,4.46
2022-11-20T09:45:20.651Z,4.49
2022-11-20T09:48:07.047Z,4.49
2022-11-20T09:50:40.476Z,4.48
2022-11-20T09:53:17.544Z,4.51
2022-11-20T09:55:47.874Z,4.53
2022-11-20T09:58:30.692Z,4.58
2022-11-20T10:01:07.293Z,4.62
2022-11-20T10:03:45.804Z,4.66
2022-11-20T10:06:21.034Z,4.68
2022-11-20T10:08:59.427Z,4.70
2022-11-20T10:11:39.152Z,4.73
2022-11-20T10:14:24.128Z,4.78
2022-11-20T10:17:04.719Z,4.80
2022-11-20T10:20:05.113Z,4.84
2022-11-20T10:22:47.768Z,4.86
2022-11-20T10:25:19.787Z,4.88
2022-11-20T10:28:08.256Z,4.89
2022-11-20T10:30:46.081Z,4.91
2022-11-20T10:33:21.239Z,4.91
2022-11-20T10:35:57.018Z,4.94
2022-11-20T10:38:31.625Z,4.98
2022-11-20T10:41:17.362Z,4.98
2022-11-20T10:43:48.503Z,5.01
2022-11-20T10:46:23.963Z,5.03
2022-11-20T10:48:54.544Z,5.03
2022-11-20T10:51:39.521Z,5.04
2022-11-20T10:54:21.756Z,5.07
2022-11-20T10:56:54.590Z,5.09
2022-11-20T10:59:40.526Z,5.13
2022-11-20T11:02:36.171Z,5.16
2022-11-20T11:05:17.221Z,5.16
2022-11-20T11:07:49.162Z,5.18
2022-11-20T11:10:21.876Z,5.19
2022-11-20T11:12:52.133Z,5.20
2022-11-20T11:15:31.276Z,5.20
2022-11-20T11:18:03.689Z,5.19
2022-11-20T11:20:33.562Z,5.19
2022-11-20T11:23:03.823Z,5.20
2022-11-20T11:25:36.290Z,5.18
2022-11-20T11:28:08.107Z,5.18
2022-11-20T11:30:47.411Z,5.19
2022-11-20T11:33:23.799Z,5.18
2022-11-20T11:35:58.158Z,5.17
2022-11-20T11:38:33.736Z,5.16
2022-11-20T11:41:04.621Z,5.12
2022-11-20T11:43:50.012Z,5.07
2022-11-20T11:46:31.893Z,5.07
2022-11-20T11:49:06.126Z,5.04
2022-11-20T11:51:42.827Z,5.04
2022-11-20T11:54:20.822Z,5.05
2022-11-20T11:56:51.156Z,5.05
2022-11-20T11:59:31.581Z,5.03
2022-11-20T12:02:08.129Z,5.04
2022-11-20T12:04:48.317Z,5.03
2022-11-20T12:07:45.581Z,5.03
2022-11-20T12:10:23.085Z,5.00
2022-11-20T12:12:58.791Z,5.00
2022-11-20T12:15:35.057Z,5.03
2022-11-20T12:18:05.226Z,5.05
2022-11-20T12:20:45.836Z,5.08
2022-11-20T12:23:26.632Z,5.10
2022-11-20T12:26:00.992Z,5.12
2022-11-20T12:28:52.220Z,5.16
2022-11-20T12:31:35.552Z,5.19
2022-11-20T12:34:20.978Z,5.26
2022-11-20T12:37:02.458Z,5.30
2022-11-20T12:39:39.257Z,5.35
2022-11-20T12:42:40.442Z,5.40
2022-11-20T12:45:33.009Z,5.44
2022-11-20T12:48:29.322Z,5.45
2022-11-20T12:51:18.922Z,5.47
2022-11-20T12:54:07.083Z,5.49
2022-11-20T12:56:47.401Z,5.49
2022-11-20T12:59:37.332Z,5.50
2022-11-20T13:02:18.954Z,5.52
2022-11-20T13:05:09.018Z,5.50
2022-11-20T13:07:39.551Z,5.52
2022-11-20T13:10:22.080Z,5.53
2022-11-20T13:13:00.982Z,5.52
2022-11-20T13:15:43.296Z,5.52
2022-11-20T13:18:15.414Z,5.50
2022-11-20T13:20:47.890Z,5.52
2022-11-20T13:23:28.730Z,5.53
2022-11-20T13:26:25.908Z,5.53
2022-11-20T13:29:12.023Z,5.53
2022-11-20T13:31:47.741Z,5.53
2022-11-20T13:34:27.416Z,5.53
2022-11-20T13:36:58.656Z,5.53
2022-11-20T13:39:28.897Z,5.53
2022-11-20T13:42:03.335Z,5.55
2022-11-20T13:44:41.044Z,5.55
2022-11-20T13:47:24.925Z,5.54
2022-11-20T13:49:55.960Z,5.52
2022-11-20T13:52:46.117Z,5.49
2022-11-20T13:55:23.339Z,5.46
2022-11-20T13:58:25.887Z,5.49
2022-11-20T14:01:02.557Z,5.49
2022-11-20T14:04:04.623Z,5.50
2022-11-20T14:06:32.561Z,5.53
2022-11-20T14:09:04.514Z,5.52
2022-11-20T14:11:35.103Z,5.54
2022-11-20T14:14:11.363Z,5.55
2022-11-20T14:16:44.075Z,5.56
2022-11-20T14:19:38.290Z,5.57
2022-11-20T14:22:14.436Z,5.56
2022-11-20T14:24:44.154Z,5.55
2022-11-20T14:27:18.082Z,5.50
2022-11-20T14:29:49.698Z,5.46
2022-11-20T14:32:26.004Z,5.45
2022-11-20T14:34:55.858Z,5.44
2022-11-20T14:37:28.627Z,5.42
2022-11-20T14:40:00.128Z,5.42
2022-11-20T14:42:32.532Z,5.39
2022-11-20T14:45:03.862Z,5.37
2022-11-20T14:47:36.499Z,5.35
2022-11-20T14:50:10.029Z,5.33
2022-11-20T14:52:39.880Z,5.32
2022-11-20T14:55:12.073Z,5.28
2022-11-20T14:57:41.867Z,5.22
2022-11-20T15:00:24.425Z,5.18
2022-11-20T15:02:57.043Z,5.17
2022-11-20T15:05:29.657Z,5.17
2022-11-20T15:08:11.699Z,5.18
2022-11-20T15:10:42.111Z,5.15
2022-11-20T15:13:17.735Z,5.09
2022-11-20T15:15:56.015Z,5.02
2022-11-20T15:18:32.232Z,4.93
2022-11-20T15:21:05.595Z,4.89
2022-11-20T15:23:35.361Z,4.86
2022-11-20T15:26:05.616Z,4.83
2022-11-20T15:28:38.222Z,4.80
2022-11-20T15:31:08.113Z,4.78
2022-11-20T15:33:40.450Z,4.80
2022-11-20T15:36:10.473Z,4.74
2022-11-20T15:38:41.748Z,4.71
2022-11-20T15:41:12.529Z,4.65
2022-11-20T15:43:42.593Z,4.60
2022-11-20T15:46:17.700Z,4.56
2022-11-20T15:48:55.608Z,4.50
2022-11-20T15:51:30.475Z,4.40
2022-11-20T15:54:00.865Z,4.29
2022-11-20T15:56:31.039Z,4.24
2022-11-20T15:59:00.782Z,4.16
2022-11-20T16:01:30.584Z,4.13
2022-11-20T16:04:03.685Z,4.11
2022-11-20T16:06:33.413Z,4.13
2022-11-20T16:09:03.350Z,4.15
2022-11-20T16:11:33.111Z,4.15
2022-11-20T16:14:15.225Z,4.10
2022-11-20T16:16:44.971Z,4.04
2022-11-20T16:19:19.149Z,3.99
2022-11-20T16:21:48.867Z,3.96
2022-11-20T16:24:20.845Z,3.92
2022-11-20T16:26:50.936Z,3.84
2022-11-20T16:29:20.683Z,3.79
2022-11-20T16:31:50.505Z,3.74
2022-11-20T16:34:22.969Z,3.69
2022-11-20T16:36:52.929Z,3.69
2022-11-20T16:39:24.113Z,3.69
2022-11-20T16:41:54.198Z,3.71
2022-11-20T16:44:24.140Z,3.73
2022-11-20T16:46:54.007Z,3.71
2022-11-20T16:49:26.928Z,3.68
2022-11-20T16:51:56.658Z,3.65
2022-11-20T16:54:26.842Z,3.61
2022-11-20T16:56:57.000Z,3.57
2022-11-20T16:59:26.975Z,3.55
2022-11-20T17:01:56.733Z,3.53
2022-11-20T17:04:29.255Z,3.47
2022-11-20T17:07:01.497Z,3.45
2022-11-20T17:09:36.229Z,3.41
2022-11-20T17:12:06.231Z,3.38
2022-11-20T17:14:35.951Z,3.36
2022-11-20T17:17:05.894Z,3.31
2022-11-20T17:19:38.443Z,3.28
2022-11-20T17:22:08.303Z,3.25
2022-11-20T17:24:38.092Z,3.22
2022-11-20T17:27:07.858Z,3.22
2022-11-20T17:29:41.902Z,3.26
2022-11-20T17:32:11.987Z,3.31
2022-11-20T17:34:44.395Z,3.35
2022-11-20T17:37:14.073Z,3.37
2022-11-20T17:39:44.924Z,3.40
2022-11-20T17:42:27.042Z,3.40
2022-11-20T17:44:56.754Z,3.41
2022-11-20T17:47:26.447Z,3.36
2022-11-20T17:49:58.810Z,3.33
2022-11-20T17:52:28.534Z,3.33
2022-11-20T17:54:58.310Z,3.34
2022-11-20T17:57:40.447Z,3.36
2022-11-20T18:00:13.322Z,3.36
2022-11-20T18:02:43.062Z,3.36
2022-11-20T18:05:15.651Z,3.37
2022-11-20T18:07:45.438Z,3.37
2022-11-20T18:10:15.655Z,3.35
2022-11-20T18:12:45.392Z,3.35
2022-11-20T18:15:15.412Z,3.35
2022-11-20T18:17:45.122Z,3.37
2022-11-20T18:20:36.694Z,3.42
2022-11-20T18:23:07.396Z,3.45
2022-11-20T18:25:37.409Z,3.45
2022-11-20T18:28:07.289Z,3.42
2022-11-20T18:30:39.097Z,3.37
2022-11-20T18:33:08.808Z,3.33
2022-11-20T18:35:43.154Z,3.30
2022-11-20T18:38:12.890Z,3.27
2022-11-20T18:40:42.600Z,3.23
2022-11-20T18:43:26.422Z,3.16
2022-11-20T18:46:05.714Z,3.08
2022-11-20T18:48:35.455Z,3.03
2022-11-20T18:51:16.301Z,2.97
2022-11-20T18:53:47.673Z,2.93
2022-11-20T18:56:17.556Z,2.91
2022-11-20T18:58:47.326Z,2.90
2022-11-20T19:01:17.116Z,2.90
2022-11-20T19:03:46.993Z,2.90
2022-11-20T19:06:19.777Z,2.93
2022-11-20T19:08:49.686Z,2.92
2022-11-20T19:11:19.391Z,2.92
2022-11-20T19:13:49.371Z,2.93
2022-11-20T19:16:22.565Z,2.94
2022-11-20T19:18:52.399Z,2.98
2022-11-20T19:21:27.794Z,3.01
2022-11-20T19:23:59.195Z,3.01
2022-11-20T19:26:29.605Z,2.99
2022-11-20T19:29:02.284Z,2.95
2022-11-20T19:31:32.142Z,2.92
2022-11-20T19:34:03.622Z,2.88
2022-11-20T19:36:43.173Z,2.89
2022-11-20T19:39:15.272Z,2.86
2022-11-20T19:41:45.378Z,2.87
2022-11-20T19:44:17.312Z,2.90
2022-11-20T19:46:47.224Z,2.91
2022-11-20T19:49:17.540Z,2.91
2022-11-20T19:51:51.848Z,2.92
2022-11-20T19:54:21.557Z,2.93
2022-11-20T19:56:51.792Z,2.94
2022-11-20T19:59:21.699Z,2.93
2022-11-20T20:01:51.713Z,2.93
2022-11-20T20:04:21.432Z,2.95
2022-11-20T20:06:53.788Z,2.92
2022-11-20T20:09:23.992Z,2.94
2022-11-20T20:11:53.851Z,2.94
2022-11-20T20:14:23.533Z,2.98
2022-11-20T20:16:53.195Z,3.03
2022-11-20T20:19:23.296Z,3.07
2022-11-20T20:21:55.844Z,3.08
2022-11-20T20:24:25.563Z,3.14
2022-11-20T20:26:58.173Z,3.21
2022-11-20T20:29:28.258Z,3.27
2022-11-20T20:31:57.937Z,3.33
2022-11-20T20:34:29.802Z,3.39
2022-11-20T20:37:03.156Z,3.43
2022-11-20T20:39:32.884Z,3.45
2022-11-20T20:42:02.575Z,3.44
2022-11-20T20:44:44.688Z,3.42
2022-11-20T20:47:14.397Z,3.40
2022-11-20T20:49:44.339Z,3.38
2022-11-20T20:52:16.706Z,3.36
2022-11-20T20:54:46.410Z,3.35
2022-11-20T20:57:16.133Z,3.35
2022-11-20T20:59:45.850Z,3.32
2022-11-20T21:02:15.543Z,3.29
2022-11-20T21:04:45.255Z,3.25
2022-11-20T21:07:17.737Z,3.24
2022-11-20T21:09:47.866Z,3.25
2022-11-20T21:12:18.943Z,3.25
2022-11-20T21:14:48.819Z,3.27
2022-11-20T21:17:18.581Z,3.27
2022-11-20T21:19:48.326Z,3.27
2022-11-20T21:22:18.040Z,3.31
2022-11-20T21:24:47.749Z,3.34
2022-11-20T21:27:17.486Z,3.38
2022-11-20T21:29:47.172Z,3.39
2022-11-20T21:32:19.996Z,3.38
2022-11-20T21:34:49.758Z,3.38
2022-11-20T21:37:22.097Z,3.40
2022-11-20T21:39:53.847Z,3.42
2022-11-20T21:42:23.640Z,3.39
2022-11-20T21:44:53.340Z,3.38
2022-11-20T21:47:23.059Z,3.40
2022-11-20T21:49:52.808Z,3.44
2022-11-20T21:52:25.137Z,3.49
2022-11-20T21:54:54.898Z,3.54
2022-11-20T21:57:24.945Z,3.57
2022-11-20T21:59:54.714Z,3.56
2022-11-20T22:02:24.512Z,3.55
2022-11-20T22:04:54.411Z,3.56
2022-11-20T22:07:26.811Z,3.57
2022-11-20T22:09:56.547Z,3.54
2022-11-20T22:12:26.296Z,3.51
2022-11-20T22:14:53.417Z,3.46
2022-11-20T22:17:43.344Z,3.46
2022-11-20T22:20:13.865Z,3.47
2022-11-20T22:22:46.192Z,3.51
2022-11-20T22:25:15.880Z,3.53
2022-11-20T22:27:45.577Z,3.56
2022-11-20T22:30:16.484Z,3.57
2022-11-20T22:32:46.159Z,3.57
2022-11-20T22:35:16.158Z,3.55
2022-11-20T22:37:51.574Z,3.55
2022-11-20T22:40:21.446Z,3.54
2022-11-20T22:42:51.200Z,3.49
2022-11-20T22:45:21.271Z,3.44
2022-11-20T22:47:50.987Z,3.43
2022-11-20T22:50:20.871Z,3.43
2022-11-20T22:52:53.158Z,3.44
2022-11-20T22:55:22.867Z,3.44
2022-11-20T22:57:52.575Z,3.47
2022-11-20T23:00:23.027Z,3.50
2022-11-20T23:02:52.720Z,3.50
2022-11-20T23:05:22.414Z,3.53
2022-11-20T23:07:54.688Z,3.58
2022-11-20T23:10:24.427Z,3.60
2022-11-20T23:12:54.112Z,3.63
2022-11-20T23:15:23.824Z,3.65
2022-11-20T23:17:53.539Z,3.67
2022-11-20T23:20:23.263Z,3.69
2022-11-20T23:22:55.561Z,3.72
2022-11-20T23:25:25.382Z,3.71
2022-11-20T23:27:56.055Z,3.71
2022-11-20T23:30:26.015Z,3.73
2022-11-20T23:32:55.698Z,3.72
2022-11-20T23:35:25.486Z,3.71
2022-11-20T23:38:00.320Z,3.72
2022-11-20T23:40:30.061Z,3.70
2022-11-20T23:43:12.163Z,3.72
2022-11-20T23:45:42.428Z,3.71
2022-11-20T23:48:12.152Z,3.71
2022-11-20T23:50:42.021Z,3.72
2022-11-20T23:53:14.959Z,3.72
2022-11-20T23:55:47.850Z,3.73
2022-11-20T23:58:20.890Z,3.73
